createdAt,value
2023-02-23T00:01:16.192Z,71.86
2023-02-23T00:05:19.867Z,72.00
2023-02-23T00:09:26.203Z,71.84
2023-02-23T00:13:29.928Z,71.88
2023-02-23T00:17:36.711Z,71.81
2023-02-23T00:21:40.213Z,71.88
2023-02-23T00:25:46.327Z,71.46
2023-02-23T00:29:51.003Z,71.75
2023-02-23T00:33:57.022Z,71.67
2023-02-23T00:38:00.234Z,71.59
2023-02-23T00:42:03.784Z,71.62
2023-02-23T00:46:07.609Z,71.51
2023-02-23T00:50:14.955Z,71.83
2023-02-23T00:54:18.414Z,71.78
2023-02-23T00:58:21.452Z,71.67
2023-02-23T01:02:25.163Z,71.40
2023-02-23T01:06:29.698Z,71.28
2023-02-23T01:10:34.139Z,71.10
2023-02-23T01:14:38.184Z,71.33
2023-02-23T01:18:42.795Z,71.43
2023-02-23T01:22:49.161Z,71.48
2023-02-23T01:26:52.347Z,71.50
2023-02-23T01:30:56.487Z,71.45
2023-02-23T01:34:59.592Z,71.69
2023-02-23T01:39:07.620Z,71.96
2023-02-23T01:43:15.815Z,72.11
2023-02-23T01:47:20.569Z,72.30
2023-02-23T01:51:26.813Z,72.64
2023-02-23T01:55:31.624Z,72.74
2023-02-23T01:59:41.146Z,73.11
2023-02-23T02:03:48.333Z,72.98
2023-02-23T02:07:59.087Z,73.15
2023-02-23T02:12:08.425Z,73.19
2023-02-23T02:16:49.907Z,72.94
2023-02-23T02:21:40.596Z,73.05
2023-02-23T02:25:55.394Z,72.91
2023-02-23T02:30:35.403Z,72.74
2023-02-23T02:35:09.501Z,72.61
2023-02-23T02:39:24.125Z,72.59
2023-02-23T02:43:38.521Z,72.51
2023-02-23T02:47:50.419Z,72.70
2023-02-23T02:52:00.027Z,72.60
2023-02-23T02:56:06.469Z,72.63
2023-02-23T03:00:37.187Z,72.61
2023-02-23T03:04:58.024Z,72.43
2023-02-23T03:09:26.659Z,72.62
2023-02-23T03:14:01.978Z,72.70
2023-02-23T03:18:35.760Z,72.70
2023-02-23T03:23:05.200Z,72.80
2023-02-23T03:27:38.069Z,72.61
2023-02-23T03:32:07.182Z,72.70
2023-02-23T03:36:36.266Z,72.73
2023-02-23T03:41:02.315Z,72.75
2023-02-23T03:45:26.997Z,72.71
2023-02-23T03:49:53.271Z,72.71
2023-02-23T03:54:20.595Z,72.77
2023-02-23T03:58:47.322Z,72.88
2023-02-23T04:03:10.193Z,72.83
2023-02-23T04:07:35.406Z,73.22
2023-02-23T04:12:01.533Z,73.14
2023-02-23T04:16:06.592Z,73.21
2023-02-23T04:20:12.327Z,73.44
2023-02-23T04:24:16.667Z,73.49
2023-02-23T04:28:20.033Z,73.66
2023-02-23T04:32:23.153Z,73.85
2023-02-23T04:36:26.926Z,74.08
2023-02-23T04:40:31.772Z,74.04
2023-02-23T04:44:35.054Z,74.19
2023-02-23T04:48:38.049Z,74.31
2023-02-23T04:52:41.158Z,74.29
2023-02-23T04:56:45.510Z,74.39
2023-02-23T05:00:48.633Z,74.45
2023-02-23T05:04:51.730Z,74.64
2023-02-23T05:08:54.879Z,74.74
2023-02-23T05:13:01.141Z,74.86
2023-02-23T05:17:04.495Z,74.82
2023-02-23T05:21:09.624Z,74.49
2023-02-23T05:25:13.064Z,74.94
2023-02-23T05:29:17.673Z,75.09
2023-02-23T05:33:21.944Z,75.22
2023-02-23T05:37:24.919Z,75.10
2023-02-23T05:41:27.965Z,74.99
2023-02-23T05:45:33.271Z,75.20
2023-02-23T05:49:36.332Z,75.12
2023-02-23T05:53:39.924Z,75.15
2023-02-23T05:57:43.942Z,75.22
2023-02-23T06:01:48.301Z,75.28
2023-02-23T06:05:52.307Z,75.10
2023-02-23T06:09:55.431Z,75.30
2023-02-23T06:14:00.515Z,75.14
2023-02-23T06:18:05.317Z,75.47
2023-02-23T06:22:08.438Z,75.50
2023-02-23T06:26:11.417Z,75.80
2023-02-23T06:30:15.345Z,75.93
2023-02-23T06:34:19.972Z,76.12
2023-02-23T06:38:24.003Z,76.29
2023-02-23T06:42:27.193Z,76.52
2023-02-23T06:46:30.479Z,77.08
2023-02-23T06:50:34.888Z,77.35
2023-02-23T06:54:40.097Z,77.70
2023-02-23T06:58:43.466Z,77.61
2023-02-23T07:02:46.592Z,77.88
2023-02-23T07:06:50.977Z,78.28
2023-02-23T07:10:54.145Z,78.38
2023-02-23T07:14:57.113Z,78.59
2023-02-23T07:19:00.412Z,78.62
2023-02-23T07:23:04.810Z,78.96
2023-02-23T07:27:08.094Z,79.25
2023-02-23T07:31:11.160Z,79.57
2023-02-23T07:35:14.216Z,79.32
2023-02-23T07:39:18.572Z,79.32
2023-02-23T07:43:22.841Z,79.53
2023-02-23T07:47:32.538Z,79.66
2023-02-23T07:51:35.671Z,79.61
2023-02-23T07:55:40.282Z,79.41
2023-02-23T07:59:43.617Z,79.74
2023-02-23T08:03:49.638Z,79.59
2023-02-23T08:07:52.771Z,79.30
2023-02-23T08:11:57.102Z,79.47
2023-02-23T08:16:00.328Z,79.65
2023-02-23T08:20:03.895Z,79.88
2023-02-23T08:24:07.971Z,79.09
2023-02-23T08:28:13.161Z,79.03
2023-02-23T08:32:16.247Z,78.51
2023-02-23T08:36:20.756Z,78.35
2023-02-23T08:40:23.853Z,77.63
2023-02-23T08:44:28.571Z,77.86
2023-02-23T08:48:31.811Z,77.15
2023-02-23T08:52:35.141Z,77.13
2023-02-23T08:56:38.382Z,77.13
2023-02-23T09:00:42.729Z,76.56
2023-02-23T09:04:45.943Z,76.57
2023-02-23T09:08:49.677Z,76.41
2023-02-23T09:12:53.014Z,76.05
2023-02-23T09:16:57.359Z,75.59
2023-02-23T09:21:00.683Z,75.82
2023-02-23T09:25:03.720Z,75.81
2023-02-23T09:29:08.408Z,75.78
2023-02-23T09:33:12.988Z,75.53
2023-02-23T09:37:16.670Z,75.55
2023-02-23T09:41:54.623Z,74.93
2023-02-23T09:46:05.282Z,74.93
2023-02-23T09:50:17.806Z,74.81
2023-02-23T09:54:24.241Z,74.50
2023-02-23T09:58:29.797Z,74.15
2023-02-23T10:02:39.840Z,74.02
2023-02-23T10:06:49.840Z,73.94
2023-02-23T10:11:00.947Z,73.57
2023-02-23T10:15:16.656Z,72.82
2023-02-23T10:19:27.329Z,72.26
2023-02-23T10:23:38.788Z,72.02
2023-02-23T10:27:45.202Z,72.02
2023-02-23T10:31:52.315Z,71.67
2023-02-23T10:36:13.026Z,71.50
2023-02-23T10:40:21.509Z,70.94
2023-02-23T10:44:27.513Z,70.78
2023-02-23T10:48:35.109Z,70.16
2023-02-23T10:52:43.104Z,69.31
2023-02-23T10:56:48.246Z,68.34
2023-02-23T11:00:56.901Z,68.49
2023-02-23T11:05:02.289Z,67.94
2023-02-23T11:09:33.105Z,67.41
2023-02-23T11:13:48.904Z,66.71
2023-02-23T11:17:57.500Z,66.51
2023-02-23T11:22:00.959Z,66.15
2023-02-23T11:26:17.208Z,66.15
2023-02-23T11:30:25.351Z,65.84
2023-02-23T11:34:35.363Z,65.72
2023-02-23T11:38:38.455Z,65.71
2023-02-23T11:42:53.545Z,65.52
2023-02-23T11:46:58.852Z,65.53
2023-02-23T11:51:02.716Z,65.45
2023-02-23T11:55:09.092Z,65.75
2023-02-23T11:59:20.505Z,65.22
2023-02-23T12:03:27.048Z,64.98
2023-02-23T12:07:41.642Z,64.62
2023-02-23T12:11:50.258Z,64.70
2023-02-23T12:15:58.926Z,64.09
2023-02-23T12:20:11.061Z,63.70
2023-02-23T12:24:21.064Z,63.21
2023-02-23T12:28:30.146Z,62.42
2023-02-23T12:32:45.298Z,62.20
2023-02-23T12:36:56.872Z,62.65
2023-02-23T12:41:06.242Z,62.57
2023-02-23T12:45:18.989Z,61.98
2023-02-23T12:49:31.208Z,62.00
2023-02-23T12:53:41.868Z,61.74
2023-02-23T12:57:54.763Z,61.22
2023-02-23T13:02:00.836Z,61.09
2023-02-23T13:06:11.923Z,61.34
2023-02-23T13:10:25.947Z,61.26
2023-02-23T13:14:35.121Z,61.73
2023-02-23T13:18:44.430Z,61.13
2023-02-23T13:22:52.258Z,61.67
2023-02-23T13:27:02.294Z,61.22
2023-02-23T13:31:06.337Z,60.91
2023-02-23T13:35:15.758Z,61.10
2023-02-23T13:39:50.093Z,60.21
2023-02-23T13:44:00.383Z,60.57
2023-02-23T13:48:14.943Z,60.69
2023-02-23T13:52:24.886Z,60.46
2023-02-23T13:56:30.863Z,60.53
2023-02-23T14:00:35.337Z,59.69
2023-02-23T14:04:42.483Z,60.24
2023-02-23T14:08:52.850Z,59.85
2023-02-23T14:13:09.283Z,59.80
2023-02-23T14:17:50.558Z,59.52
2023-02-23T14:22:00.846Z,59.49
2023-02-23T14:26:16.495Z,59.94
2023-02-23T14:30:27.188Z,60.01
2023-02-23T14:34:49.473Z,60.23
2023-02-23T14:39:01.712Z,60.22
2023-02-23T14:43:05.126Z,60.04
2023-02-23T14:47:12.873Z,59.64
2023-02-23T14:51:23.513Z,59.69
2023-02-23T14:55:29.595Z,60.02
2023-02-23T14:59:39.654Z,59.77
2023-02-23T15:03:42.809Z,60.32
2023-02-23T15:07:46.807Z,60.41
2023-02-23T15:11:54.185Z,60.51
2023-02-23T15:15:58.768Z,60.55
2023-02-23T15:20:15.805Z,60.92
2023-02-23T15:24:25.829Z,60.78
2023-02-23T15:28:31.334Z,61.24
2023-02-23T15:32:39.550Z,61.15
2023-02-23T15:36:47.143Z,60.91
2023-02-23T15:40:53.626Z,60.87
2023-02-23T15:45:03.157Z,61.10
2023-02-23T15:49:07.441Z,61.08
2023-02-23T15:53:31.808Z,61.32
2023-02-23T15:57:44.176Z,61.51
2023-02-23T16:01:48.852Z,61.62
2023-02-23T16:05:59.849Z,61.42
2023-02-23T16:10:07.146Z,61.67
2023-02-23T16:14:17.810Z,61.77
2023-02-23T16:18:30.137Z,61.70
2023-02-23T16:22:33.456Z,61.19
2023-02-23T16:26:42.470Z,61.38
2023-02-23T16:30:53.653Z,61.87
2023-02-23T16:35:02.470Z,61.87
2023-02-23T16:39:11.987Z,62.10
2023-02-23T16:43:15.089Z,62.36
2023-02-23T16:47:36.419Z,62.38
2023-02-23T16:51:41.617Z,62.63
2023-02-23T16:55:50.207Z,62.78
2023-02-23T16:59:54.807Z,62.63
2023-02-23T17:03:59.115Z,63.30
2023-02-23T17:08:05.003Z,63.28
2023-02-23T17:12:08.394Z,63.62
2023-02-23T17:16:14.266Z,64.03
2023-02-23T17:20:21.727Z,63.94
2023-02-23T17:24:26.295Z,64.07
2023-02-23T17:28:29.317Z,64.08
2023-02-23T17:32:33.110Z,63.91
2023-02-23T17:36:36.133Z,64.03
2023-02-23T17:40:40.846Z,64.38
2023-02-23T17:44:44.561Z,64.41
2023-02-23T17:48:47.883Z,64.13
2023-02-23T17:52:51.944Z,62.92
2023-02-23T17:56:56.858Z,63.07
2023-02-23T18:01:01.899Z,62.61
2023-02-23T18:05:05.682Z,62.63
2023-02-23T18:09:08.954Z,62.45
2023-02-23T18:13:15.337Z,61.99
2023-02-23T18:17:18.391Z,61.96
2023-02-23T18:21:23.203Z,62.09
2023-02-23T18:25:29.077Z,61.92
2023-02-23T18:29:35.852Z,61.92
2023-02-23T18:33:38.864Z,62.22
2023-02-23T18:37:42.050Z,62.00
2023-02-23T18:41:45.568Z,62.09
2023-02-23T18:45:51.103Z,62.24
2023-02-23T18:49:54.097Z,62.40
2023-02-23T18:53:57.221Z,62.56
2023-02-23T18:58:00.368Z,62.30
2023-02-23T19:02:05.274Z,62.52
2023-02-23T19:06:11.604Z,62.98
2023-02-23T19:10:16.581Z,62.85
2023-02-23T19:14:22.098Z,62.72
2023-02-23T19:18:28.395Z,62.13
2023-02-23T19:22:31.387Z,62.46
2023-02-23T19:26:37.341Z,62.57
2023-02-23T19:30:45.025Z,62.66
2023-02-23T19:34:49.688Z,62.78
2023-02-23T19:38:52.692Z,62.66
2023-02-23T19:42:56.151Z,62.55
2023-02-23T19:46:59.161Z,62.31
2023-02-23T19:51:04.264Z,62.53
2023-02-23T19:55:08.430Z,62.76
2023-02-23T19:59:12.201Z,62.19
2023-02-23T20:03:19.855Z,62.52
2023-02-23T20:07:25.483Z,62.29
2023-02-23T20:11:28.620Z,62.72
2023-02-23T20:15:31.778Z,62.76
2023-02-23T20:19:34.767Z,62.83
2023-02-23T20:23:39.413Z,63.27
2023-02-23T20:27:44.125Z,62.90
2023-02-23T20:31:50.736Z,63.20
2023-02-23T20:35:53.974Z,63.39
2023-02-23T20:39:58.463Z,63.54
2023-02-23T20:44:01.868Z,63.66
2023-02-23T20:48:05.056Z,63.38
2023-02-23T20:52:08.094Z,63.24
2023-02-23T20:56:12.679Z,63.56
2023-02-23T21:00:28.779Z,63.74
2023-02-23T21:04:35.385Z,64.05
2023-02-23T21:08:39.942Z,64.17
2023-02-23T21:12:44.445Z,64.21
2023-02-23T21:16:47.450Z,64.25
2023-02-23T21:20:50.551Z,64.03
2023-02-23T21:24:53.587Z,64.27
2023-02-23T21:28:58.361Z,64.68
2023-02-23T21:33:03.831Z,64.24
2023-02-23T21:37:07.345Z,64.49
2023-02-23T21:41:11.703Z,64.65
2023-02-23T21:45:17.308Z,64.83
2023-02-23T21:49:20.833Z,64.82
2023-02-23T21:53:23.910Z,65.02
2023-02-23T21:57:28.286Z,64.91
2023-02-23T22:01:34.731Z,64.86
2023-02-23T22:05:37.757Z,65.01
2023-02-23T22:09:41.389Z,65.28
2023-02-23T22:13:44.701Z,65.05
2023-02-23T22:17:49.133Z,65.42
2023-02-23T22:21:52.420Z,65.79
2023-02-23T22:25:55.869Z,65.89
2023-02-23T22:30:01.538Z,65.89
2023-02-23T22:34:07.360Z,65.89
2023-02-23T22:38:10.382Z,65.65
2023-02-23T22:42:13.447Z,65.77
2023-02-23T22:46:17.700Z,65.83
2023-02-23T22:50:22.442Z,65.53
2023-02-23T22:54:26.547Z,65.78
2023-02-23T22:58:31.617Z,65.79
2023-02-23T23:02:36.264Z,65.37
2023-02-23T23:06:42.790Z,65.70
2023-02-23T23:10:49.358Z,65.83
2023-02-23T23:14:52.531Z,65.94
2023-02-23T23:18:57.590Z,65.81
2023-02-23T23:23:02.668Z,66.03
2023-02-23T23:27:08.243Z,66.69
2023-02-23T23:31:11.498Z,67.03
2023-02-23T23:35:15.343Z,66.82
2023-02-23T23:39:21.815Z,67.37
2023-02-23T23:43:25.358Z,67.36
2023-02-23T23:47:30.450Z,67.61
2023-02-23T23:51:38.803Z,67.67
2023-02-23T23:55:43.280Z,67.66
2023-02-23T23:59:48.675Z,67.81
